sensor_id;sensor_type;location;lat;lon;timestamp;P1;durP1;ratioP1;P2;durP2;ratioP2
10432;SDS011;5263;48.680;9.004;2023-04-24T00:01:13;0.93;;;0.40;;
10432;SDS011;5263;48.680;9.004;2023-04-24T00:03:40;1.20;;;0.47;;
10432;SDS011;5263;48.680;9.004;2023-04-24T00:06:06;2.20;;;0.30;;
10432;SDS011;5263;48.680;9.004;2023-04-24T00:08:33;1.33;;;0.10;;
10432;SDS011;5263;48.680;9.004;2023-04-24T00:10:59;0.40;;;0.30;;
10432;SDS011;5263;48.680;9.004;2023-04-24T00:13:25;1.07;;;0.30;;
10432;SDS011;5263;48.680;9.004;2023-04-24T00:15:53;2.03;;;0.30;;
10432;SDS011;5263;48.680;9.004;2023-04-24T00:18:19;2.00;;;0.30;;
10432;SDS011;5263;48.680;9.004;2023-04-24T00:20:44;0.63;;;0.30;;
10432;SDS011;5263;48.680;9.004;2023-04-24T00:23:11;4.63;;;0.27;;
10432;SDS011;5263;48.680;9.004;2023-04-24T00:25:37;0.70;;;0.17;;
10432;SDS011;5263;48.680;9.004;2023-04-24T00:28:03;2.30;;;0.30;;
10432;SDS011;5263;48.680;9.004;2023-04-24T00:30:29;0.70;;;0.20;;
10432;SDS011;5263;48.680;9.004;2023-04-24T00:32:54;2.33;;;0.30;;
10432;SDS011;5263;48.680;9.004;2023-04-24T00:35:20;1.27;;;0.30;;
10432;SDS011;5263;48.680;9.004;2023-04-24T00:37:45;0.20;;;0.20;;
10432;SDS011;5263;48.680;9.004;2023-04-24T00:40:11;0.93;;;0.20;;
10432;SDS011;5263;48.680;9.004;2023-04-24T00:42:37;0.57;;;0.23;;
10432;SDS011;5263;48.680;9.004;2023-04-24T00:45:03;0.20;;;0.20;;
10432;SDS011;5263;48.680;9.004;2023-04-24T00:47:30;0.57;;;0.20;;
10432;SDS011;5263;48.680;9.004;2023-04-24T00:49:58;0.60;;;0.27;;
10432;SDS011;5263;48.680;9.004;2023-04-24T00:52:25;1.13;;;0.20;;
10432;SDS011;5263;48.680;9.004;2023-04-24T00:54:51;1.60;;;0.10;;
10432;SDS011;5263;48.680;9.004;2023-04-24T00:57:17;1.60;;;0.20;;
10432;SDS011;5263;48.680;9.004;2023-04-24T00:59:42;3.20;;;0.20;;
10432;SDS011;5263;48.680;9.004;2023-04-24T01:02:09;0.20;;;0.20;;
10432;SDS011;5263;48.680;9.004;2023-04-24T01:04:36;1.30;;;0.20;;
10432;SDS011;5263;48.680;9.004;2023-04-24T01:07:02;1.80;;;0.40;;
10432;SDS011;5263;48.680;9.004;2023-04-24T01:09:29;1.20;;;0.33;;
10432;SDS011;5263;48.680;9.004;2023-04-24T01:11:55;0.50;;;0.30;;
10432;SDS011;5263;48.680;9.004;2023-04-24T01:14:21;0.87;;;0.20;;
10432;SDS011;5263;48.680;9.004;2023-04-24T01:16:47;1.13;;;0.20;;
10432;SDS011;5263;48.680;9.004;2023-04-24T01:19:13;1.00;;;0.30;;
10432;SDS011;5263;48.680;9.004;2023-04-24T01:21:39;1.00;;;0.33;;
10432;SDS011;5263;48.680;9.004;2023-04-24T01:24:07;1.43;;;0.30;;
10432;SDS011;5263;48.680;9.004;2023-04-24T01:26:32;0.53;;;0.20;;
10432;SDS011;5263;48.680;9.004;2023-04-24T01:28:58;0.83;;;0.20;;
10432;SDS011;5263;48.680;9.004;2023-04-24T01:31:24;0.30;;;0.10;;
10432;SDS011;5263;48.680;9.004;2023-04-24T01:33:50;0.67;;;0.17;;
10432;SDS011;5263;48.680;9.004;2023-04-24T01:36:17;1.37;;;0.20;;
10432;SDS011;5263;48.680;9.004;2023-04-24T01:38:44;1.40;;;0.30;;
10432;SDS011;5263;48.680;9.004;2023-04-24T01:41:10;0.30;;;0.10;;
10432;SDS011;5263;48.680;9.004;2023-04-24T01:43:35;0.30;;;0.30;;
10432;SDS011;5263;48.680;9.004;2023-04-24T01:46:01;1.33;;;0.30;;
10432;SDS011;5263;48.680;9.004;2023-04-24T01:48:27;0.77;;;0.20;;
10432;SDS011;5263;48.680;9.004;2023-04-24T01:50:52;2.00;;;0.30;;
10432;SDS011;5263;48.680;9.004;2023-04-24T01:53:18;1.20;;;0.20;;
10432;SDS011;5263;48.680;9.004;2023-04-24T01:55:44;0.30;;;0.30;;
10432;SDS011;5263;48.680;9.004;2023-04-24T01:58:10;1.53;;;0.20;;
10432;SDS011;5263;48.680;9.004;2023-04-24T02:00:35;0.20;;;0.20;;
10432;SDS011;5263;48.680;9.004;2023-04-24T02:03:01;0.27;;;0.20;;
10432;SDS011;5263;48.680;9.004;2023-04-24T02:05:27;0.30;;;0.23;;
10432;SDS011;5263;48.680;9.004;2023-04-24T02:07:53;0.83;;;0.30;;
10432;SDS011;5263;48.680;9.004;2023-04-24T02:10:19;0.20;;;0.20;;
10432;SDS011;5263;48.680;9.004;2023-04-24T02:12:44;0.67;;;0.30;;
10432;SDS011;5263;48.680;9.004;2023-04-24T02:15:10;0.97;;;0.30;;
10432;SDS011;5263;48.680;9.004;2023-04-24T02:17:36;1.90;;;0.20;;
10432;SDS011;5263;48.680;9.004;2023-04-24T02:20:02;2.00;;;0.30;;
10432;SDS011;5263;48.680;9.004;2023-04-24T02:22:28;1.00;;;0.30;;
10432;SDS011;5263;48.680;9.004;2023-04-24T02:24:54;0.83;;;0.20;;
10432;SDS011;5263;48.680;9.004;2023-04-24T02:27:20;2.50;;;0.20;;
10432;SDS011;5263;48.680;9.004;2023-04-24T02:29:45;2.53;;;0.40;;
10432;SDS011;5263;48.680;9.004;2023-04-24T02:32:11;1.47;;;0.30;;
10432;SDS011;5263;48.680;9.004;2023-04-24T02:34:37;0.67;;;0.23;;
10432;SDS011;5263;48.680;9.004;2023-04-24T02:37:03;0.77;;;0.30;;
10432;SDS011;5263;48.680;9.004;2023-04-24T02:39:28;0.70;;;0.20;;
10432;SDS011;5263;48.680;9.004;2023-04-24T02:41:54;0.40;;;0.20;;
10432;SDS011;5263;48.680;9.004;2023-04-24T02:44:19;0.83;;;0.30;;
10432;SDS011;5263;48.680;9.004;2023-04-24T02:46:46;0.30;;;0.27;;
10432;SDS011;5263;48.680;9.004;2023-04-24T02:49:12;0.50;;;0.20;;
10432;SDS011;5263;48.680;9.004;2023-04-24T02:51:37;1.97;;;0.20;;
10432;SDS011;5263;48.680;9.004;2023-04-24T02:54:06;0.37;;;0.30;;
10432;SDS011;5263;48.680;9.004;2023-04-24T02:56:37;0.40;;;0.30;;
10432;SDS011;5263;48.680;9.004;2023-04-24T02:59:03;0.37;;;0.30;;
10432;SDS011;5263;48.680;9.004;2023-04-24T03:01:28;0.87;;;0.30;;
10432;SDS011;5263;48.680;9.004;2023-04-24T03:03:54;0.73;;;0.30;;
10432;SDS011;5263;48.680;9.004;2023-04-24T03:06:20;3.40;;;0.50;;
10432;SDS011;5263;48.680;9.004;2023-04-24T03:08:46;0.43;;;0.43;;
10432;SDS011;5263;48.680;9.004;2023-04-24T03:11:11;1.83;;;0.37;;
10432;SDS011;5263;48.680;9.004;2023-04-24T03:13:37;0.60;;;0.30;;
10432;SDS011;5263;48.680;9.004;2023-04-24T03:16:02;0.70;;;0.40;;
10432;SDS011;5263;48.680;9.004;2023-04-24T03:18:28;1.07;;;0.40;;
10432;SDS011;5263;48.680;9.004;2023-04-24T03:20:53;1.27;;;0.33;;
10432;SDS011;5263;48.680;9.004;2023-04-24T03:23:19;0.47;;;0.30;;
10432;SDS011;5263;48.680;9.004;2023-04-24T03:25:45;1.93;;;0.30;;
10432;SDS011;5263;48.680;9.004;2023-04-24T03:28:10;0.87;;;0.30;;
10432;SDS011;5263;48.680;9.004;2023-04-24T03:30:36;3.57;;;0.87;;
10432;SDS011;5263;48.680;9.004;2023-04-24T03:33:01;0.23;;;0.23;;
10432;SDS011;5263;48.680;9.004;2023-04-24T03:35:27;0.67;;;0.30;;
10432;SDS011;5263;48.680;9.004;2023-04-24T03:37:53;2.00;;;0.30;;
10432;SDS011;5263;48.680;9.004;2023-04-24T03:40:18;2.93;;;0.37;;
10432;SDS011;5263;48.680;9.004;2023-04-24T03:42:44;0.63;;;0.20;;
10432;SDS011;5263;48.680;9.004;2023-04-24T03:45:09;1.27;;;0.30;;
10432;SDS011;5263;48.680;9.004;2023-04-24T03:47:35;0.70;;;0.30;;
10432;SDS011;5263;48.680;9.004;2023-04-24T03:50:01;2.53;;;0.30;;
10432;SDS011;5263;48.680;9.004;2023-04-24T03:52:26;1.90;;;0.20;;
10432;SDS011;5263;48.680;9.004;2023-04-24T03:54:52;1.30;;;0.20;;
10432;SDS011;5263;48.680;9.004;2023-04-24T03:57:17;1.27;;;0.27;;
10432;SDS011;5263;48.680;9.004;2023-04-24T03:59:43;0.60;;;0.23;;
10432;SDS011;5263;48.680;9.004;2023-04-24T04:02:09;1.03;;;0.10;;
10432;SDS011;5263;48.680;9.004;2023-04-24T04:04:34;0.83;;;0.30;;
10432;SDS011;5263;48.680;9.004;2023-04-24T04:07:00;0.20;;;0.20;;
10432;SDS011;5263;48.680;9.004;2023-04-24T04:09:27;0.40;;;0.10;;
10432;SDS011;5263;48.680;9.004;2023-04-24T04:11:53;0.57;;;0.27;;
10432;SDS011;5263;48.680;9.004;2023-04-24T04:14:20;0.23;;;0.20;;
10432;SDS011;5263;48.680;9.004;2023-04-24T04:16:46;0.50;;;0.20;;
10432;SDS011;5263;48.680;9.004;2023-04-24T04:19:12;0.20;;;0.20;;
10432;SDS011;5263;48.680;9.004;2023-04-24T04:21:37;0.33;;;0.20;;
10432;SDS011;5263;48.680;9.004;2023-04-24T04:24:03;0.57;;;0.10;;
10432;SDS011;5263;48.680;9.004;2023-04-24T04:26:30;0.10;;;0.10;;
10432;SDS011;5263;48.680;9.004;2023-04-24T04:28:57;3.60;;;0.33;;
10432;SDS011;5263;48.680;9.004;2023-04-24T04:31:23;0.40;;;0.40;;
10432;SDS011;5263;48.680;9.004;2023-04-24T04:33:49;2.93;;;0.40;;
10432;SDS011;5263;48.680;9.004;2023-04-24T04:36:15;2.53;;;0.33;;
10432;SDS011;5263;48.680;9.004;2023-04-24T04:38:43;0.50;;;0.33;;
10432;SDS011;5263;48.680;9.004;2023-04-24T04:41:09;1.53;;;0.40;;
10432;SDS011;5263;48.680;9.004;2023-04-24T04:43:35;0.87;;;0.50;;
10432;SDS011;5263;48.680;9.004;2023-04-24T04:46:01;0.63;;;0.40;;
10432;SDS011;5263;48.680;9.004;2023-04-24T04:48:28;0.50;;;0.50;;
10432;SDS011;5263;48.680;9.004;2023-04-24T04:50:56;2.73;;;0.50;;
10432;SDS011;5263;48.680;9.004;2023-04-24T04:53:22;0.90;;;0.70;;
10432;SDS011;5263;48.680;9.004;2023-04-24T04:55:48;0.60;;;0.60;;
10432;SDS011;5263;48.680;9.004;2023-04-24T04:58:14;0.73;;;0.50;;
10432;SDS011;5263;48.680;9.004;2023-04-24T05:00:39;0.63;;;0.50;;
10432;SDS011;5263;48.680;9.004;2023-04-24T05:03:06;0.70;;;0.50;;
10432;SDS011;5263;48.680;9.004;2023-04-24T05:05:32;0.70;;;0.70;;
10432;SDS011;5263;48.680;9.004;2023-04-24T05:07:57;1.47;;;0.70;;
10432;SDS011;5263;48.680;9.004;2023-04-24T05:10:23;0.57;;;0.57;;
10432;SDS011;5263;48.680;9.004;2023-04-24T05:12:48;0.60;;;0.60;;
10432;SDS011;5263;48.680;9.004;2023-04-24T05:15:14;0.50;;;0.50;;
10432;SDS011;5263;48.680;9.004;2023-04-24T05:17:40;1.13;;;0.70;;
10432;SDS011;5263;48.680;9.004;2023-04-24T05:20:06;0.60;;;0.60;;
10432;SDS011;5263;48.680;9.004;2023-04-24T05:22:32;0.80;;;0.60;;
10432;SDS011;5263;48.680;9.004;2023-04-24T05:24:58;0.70;;;0.70;;
10432;SDS011;5263;48.680;9.004;2023-04-24T05:27:24;1.10;;;0.70;;
10432;SDS011;5263;48.680;9.004;2023-04-24T05:29:49;2.87;;;0.70;;
10432;SDS011;5263;48.680;9.004;2023-04-24T05:32:15;2.43;;;0.80;;
10432;SDS011;5263;48.680;9.004;2023-04-24T05:34:41;0.60;;;0.60;;
10432;SDS011;5263;48.680;9.004;2023-04-24T05:37:07;0.73;;;0.60;;
10432;SDS011;5263;48.680;9.004;2023-04-24T05:39:34;1.33;;;0.70;;
10432;SDS011;5263;48.680;9.004;2023-04-24T05:42:01;1.20;;;0.90;;
10432;SDS011;5263;48.680;9.004;2023-04-24T05:44:27;1.17;;;0.70;;
10432;SDS011;5263;48.680;9.004;2023-04-24T05:46:53;0.50;;;0.50;;
10432;SDS011;5263;48.680;9.004;2023-04-24T05:49:20;1.03;;;0.60;;
10432;SDS011;5263;48.680;9.004;2023-04-24T05:51:45;1.37;;;0.70;;
10432;SDS011;5263;48.680;9.004;2023-04-24T05:54:11;0.70;;;0.70;;
10432;SDS011;5263;48.680;9.004;2023-04-24T05:56:37;0.70;;;0.70;;
10432;SDS011;5263;48.680;9.004;2023-04-24T05:59:03;2.63;;;0.90;;
10432;SDS011;5263;48.680;9.004;2023-04-24T06:01:29;0.90;;;0.80;;
10432;SDS011;5263;48.680;9.004;2023-04-24T06:03:54;1.20;;;0.90;;
10432;SDS011;5263;48.680;9.004;2023-04-24T06:06:20;0.70;;;0.70;;
10432;SDS011;5263;48.680;9.004;2023-04-24T06:08:46;0.73;;;0.73;;
10432;SDS011;5263;48.680;9.004;2023-04-24T06:11:11;1.47;;;1.20;;
10432;SDS011;5263;48.680;9.004;2023-04-24T06:13:37;1.07;;;0.90;;
10432;SDS011;5263;48.680;9.004;2023-04-24T06:16:02;1.27;;;0.73;;
10432;SDS011;5263;48.680;9.004;2023-04-24T06:18:28;0.80;;;0.80;;
10432;SDS011;5263;48.680;9.004;2023-04-24T06:20:54;2.63;;;0.80;;
10432;SDS011;5263;48.680;9.004;2023-04-24T06:23:20;1.07;;;0.60;;
10432;SDS011;5263;48.680;9.004;2023-04-24T06:25:46;0.80;;;0.80;;
10432;SDS011;5263;48.680;9.004;2023-04-24T06:28:12;0.97;;;0.70;;
10432;SDS011;5263;48.680;9.004;2023-04-24T06:30:37;1.03;;;0.50;;
10432;SDS011;5263;48.680;9.004;2023-04-24T06:33:03;1.83;;;0.60;;
10432;SDS011;5263;48.680;9.004;2023-04-24T06:35:28;1.13;;;0.60;;
10432;SDS011;5263;48.680;9.004;2023-04-24T06:37:54;1.17;;;0.50;;
10432;SDS011;5263;48.680;9.004;2023-04-24T06:40:21;0.70;;;0.63;;
10432;SDS011;5263;48.680;9.004;2023-04-24T06:42:47;0.60;;;0.60;;
10432;SDS011;5263;48.680;9.004;2023-04-24T06:45:12;1.50;;;0.60;;
10432;SDS011;5263;48.680;9.004;2023-04-24T06:47:38;3.03;;;0.60;;
10432;SDS011;5263;48.680;9.004;2023-04-24T06:50:04;0.80;;;0.67;;
10432;SDS011;5263;48.680;9.004;2023-04-24T06:52:30;0.93;;;0.50;;
10432;SDS011;5263;48.680;9.004;2023-04-24T06:55:01;1.87;;;0.80;;
10432;SDS011;5263;48.680;9.004;2023-04-24T06:57:27;0.60;;;0.60;;
10432;SDS011;5263;48.680;9.004;2023-04-24T06:59:53;0.77;;;0.67;;
10432;SDS011;5263;48.680;9.004;2023-04-24T07:02:19;0.93;;;0.63;;
10432;SDS011;5263;48.680;9.004;2023-04-24T07:04:45;1.27;;;0.57;;
10432;SDS011;5263;48.680;9.004;2023-04-24T07:07:12;0.30;;;0.30;;
10432;SDS011;5263;48.680;9.004;2023-04-24T07:09:39;0.50;;;0.40;;
10432;SDS011;5263;48.680;9.004;2023-04-24T07:12:07;0.80;;;0.40;;
10432;SDS011;5263;48.680;9.004;2023-04-24T07:14:33;0.30;;;0.30;;
10432;SDS011;5263;48.680;9.004;2023-04-24T07:16:59;0.80;;;0.40;;
10432;SDS011;5263;48.680;9.004;2023-04-24T07:19:24;0.27;;;0.27;;
10432;SDS011;5263;48.680;9.004;2023-04-24T07:21:50;0.40;;;0.40;;
10432;SDS011;5263;48.680;9.004;2023-04-24T07:24:15;0.40;;;0.40;;
10432;SDS011;5263;48.680;9.004;2023-04-24T07:26:41;0.30;;;0.30;;
10432;SDS011;5263;48.680;9.004;2023-04-24T07:29:07;0.60;;;0.20;;
10432;SDS011;5263;48.680;9.004;2023-04-24T07:31:33;3.90;;;0.53;;
10432;SDS011;5263;48.680;9.004;2023-04-24T07:33:58;1.17;;;0.37;;
10432;SDS011;5263;48.680;9.004;2023-04-24T07:36:24;0.40;;;0.40;;
10432;SDS011;5263;48.680;9.004;2023-04-24T07:38:50;0.33;;;0.33;;
10432;SDS011;5263;48.680;9.004;2023-04-24T07:41:16;1.00;;;0.50;;
10432;SDS011;5263;48.680;9.004;2023-04-24T07:43:42;1.90;;;0.40;;
10432;SDS011;5263;48.680;9.004;2023-04-24T07:46:07;0.93;;;0.30;;
10432;SDS011;5263;48.680;9.004;2023-04-24T07:48:33;0.30;;;0.30;;
10432;SDS011;5263;48.680;9.004;2023-04-24T07:50:59;1.13;;;0.40;;
10432;SDS011;5263;48.680;9.004;2023-04-24T07:53:25;0.40;;;0.40;;
10432;SDS011;5263;48.680;9.004;2023-04-24T07:55:51;0.97;;;0.50;;
10432;SDS011;5263;48.680;9.004;2023-04-24T07:58:16;0.90;;;0.40;;
10432;SDS011;5263;48.680;9.004;2023-04-24T08:00:42;0.80;;;0.40;;
10432;SDS011;5263;48.680;9.004;2023-04-24T08:03:08;0.67;;;0.30;;
10432;SDS011;5263;48.680;9.004;2023-04-24T08:05:33;0.70;;;0.40;;
10432;SDS011;5263;48.680;9.004;2023-04-24T08:07:59;0.50;;;0.50;;
10432;SDS011;5263;48.680;9.004;2023-04-24T08:10:24;0.60;;;0.30;;
10432;SDS011;5263;48.680;9.004;2023-04-24T08:12:50;0.57;;;0.40;;
10432;SDS011;5263;48.680;9.004;2023-04-24T08:15:16;0.33;;;0.33;;
10432;SDS011;5263;48.680;9.004;2023-04-24T08:17:42;0.30;;;0.30;;
10432;SDS011;5263;48.680;9.004;2023-04-24T08:20:09;0.50;;;0.50;;
10432;SDS011;5263;48.680;9.004;2023-04-24T08:22:41;1.03;;;0.50;;
10432;SDS011;5263;48.680;9.004;2023-04-24T08:25:08;0.30;;;0.30;;
10432;SDS011;5263;48.680;9.004;2023-04-24T08:27:35;3.07;;;0.60;;
10432;SDS011;5263;48.680;9.004;2023-04-24T08:30:02;0.63;;;0.40;;
10432;SDS011;5263;48.680;9.004;2023-04-24T08:32:28;2.33;;;0.40;;
10432;SDS011;5263;48.680;9.004;2023-04-24T08:34:57;8.90;;;1.03;;
10432;SDS011;5263;48.680;9.004;2023-04-24T08:37:26;0.63;;;0.40;;
10432;SDS011;5263;48.680;9.004;2023-04-24T08:39:52;1.13;;;0.50;;
10432;SDS011;5263;48.680;9.004;2023-04-24T08:42:18;0.67;;;0.40;;
10432;SDS011;5263;48.680;9.004;2023-04-24T08:44:45;0.80;;;0.60;;
10432;SDS011;5263;48.680;9.004;2023-04-24T08:47:13;0.47;;;0.47;;
10432;SDS011;5263;48.680;9.004;2023-04-24T08:49:40;0.50;;;0.40;;
10432;SDS011;5263;48.680;9.004;2023-04-24T08:52:06;1.60;;;0.50;;
10432;SDS011;5263;48.680;9.004;2023-04-24T08:54:35;2.00;;;0.60;;
10432;SDS011;5263;48.680;9.004;2023-04-24T08:57:02;0.50;;;0.50;;
10432;SDS011;5263;48.680;9.004;2023-04-24T08:59:31;2.23;;;0.57;;
10432;SDS011;5263;48.680;9.004;2023-04-24T09:01:58;0.50;;;0.40;;
10432;SDS011;5263;48.680;9.004;2023-04-24T09:04:24;0.73;;;0.60;;
10432;SDS011;5263;48.680;9.004;2023-04-24T09:06:51;0.87;;;0.40;;
10432;SDS011;5263;48.680;9.004;2023-04-24T09:09:20;2.70;;;0.50;;
10432;SDS011;5263;48.680;9.004;2023-04-24T09:11:46;2.23;;;0.30;;
10432;SDS011;5263;48.680;9.004;2023-04-24T09:14:13;0.40;;;0.40;;
10432;SDS011;5263;48.680;9.004;2023-04-24T09:16:39;1.13;;;0.40;;
10432;SDS011;5263;48.680;9.004;2023-04-24T09:19:05;1.23;;;0.40;;
10432;SDS011;5263;48.680;9.004;2023-04-24T09:21:31;2.37;;;0.50;;
10432;SDS011;5263;48.680;9.004;2023-04-24T09:23:59;0.33;;;0.30;;
10432;SDS011;5263;48.680;9.004;2023-04-24T09:26:27;0.30;;;0.30;;
10432;SDS011;5263;48.680;9.004;2023-04-24T09:28:56;2.33;;;0.40;;
10432;SDS011;5263;48.680;9.004;2023-04-24T09:31:22;5.50;;;0.33;;
10432;SDS011;5263;48.680;9.004;2023-04-24T09:33:58;2.27;;;0.53;;
10432;SDS011;5263;48.680;9.004;2023-04-24T09:36:38;2.50;;;0.20;;
10432;SDS011;5263;48.680;9.004;2023-04-24T09:39:09;2.00;;;0.37;;
10432;SDS011;5263;48.680;9.004;2023-04-24T09:41:57;1.30;;;0.57;;
10432;SDS011;5263;48.680;9.004;2023-04-24T09:44:23;0.57;;;0.20;;
10432;SDS011;5263;48.680;9.004;2023-04-24T09:49:21;1.90;;;0.30;;
10432;SDS011;5263;48.680;9.004;2023-04-24T09:51:50;0.13;;;0.10;;
10432;SDS011;5263;48.680;9.004;2023-04-24T09:54:17;0.43;;;0.20;;
10432;SDS011;5263;48.680;9.004;2023-04-24T09:56:46;0.23;;;0.20;;
10432;SDS011;5263;48.680;9.004;2023-04-24T09:59:16;0.27;;;0.20;;
10432;SDS011;5263;48.680;9.004;2023-04-24T10:01:43;2.53;;;0.40;;
10432;SDS011;5263;48.680;9.004;2023-04-24T10:04:20;0.67;;;0.40;;
10432;SDS011;5263;48.680;9.004;2023-04-24T10:06:48;0.20;;;0.20;;
10432;SDS011;5263;48.680;9.004;2023-04-24T10:09:15;0.60;;;0.30;;
10432;SDS011;5263;48.680;9.004;2023-04-24T10:11:43;0.50;;;0.20;;
10432;SDS011;5263;48.680;9.004;2023-04-24T10:14:28;0.43;;;0.27;;
10432;SDS011;5263;48.680;9.004;2023-04-24T10:16:55;0.57;;;0.30;;
10432;SDS011;5263;48.680;9.004;2023-04-24T10:19:24;0.30;;;0.30;;
10432;SDS011;5263;48.680;9.004;2023-04-24T10:21:51;0.83;;;0.20;;
10432;SDS011;5263;48.680;9.004;2023-04-24T10:24:19;0.20;;;0.20;;
10432;SDS011;5263;48.680;9.004;2023-04-24T10:26:48;0.20;;;0.20;;
10432;SDS011;5263;48.680;9.004;2023-04-24T10:29:14;0.63;;;0.27;;
10432;SDS011;5263;48.680;9.004;2023-04-24T10:31:42;0.20;;;0.20;;
10432;SDS011;5263;48.680;9.004;2023-04-24T10:34:10;0.40;;;0.20;;
10432;SDS011;5263;48.680;9.004;2023-04-24T10:36:38;0.30;;;0.30;;
10432;SDS011;5263;48.680;9.004;2023-04-24T10:39:08;1.30;;;0.20;;
10432;SDS011;5263;48.680;9.004;2023-04-24T10:41:37;2.57;;;0.20;;
10432;SDS011;5263;48.680;9.004;2023-04-24T10:46:35;0.40;;;0.37;;
10432;SDS011;5263;48.680;9.004;2023-04-24T10:49:05;0.57;;;0.30;;
10432;SDS011;5263;48.680;9.004;2023-04-24T10:51:52;3.03;;;0.27;;
10432;SDS011;5263;48.680;9.004;2023-04-24T10:54:28;0.37;;;0.30;;
10432;SDS011;5263;48.680;9.004;2023-04-24T10:59:50;0.30;;;0.30;;
10432;SDS011;5263;48.680;9.004;2023-04-24T11:02:37;0.30;;;0.30;;
10432;SDS011;5263;48.680;9.004;2023-04-24T11:05:05;1.70;;;0.40;;
10432;SDS011;5263;48.680;9.004;2023-04-24T11:10:55;1.90;;;0.40;;
10432;SDS011;5263;48.680;9.004;2023-04-24T11:19:18;1.37;;;0.40;;
10432;SDS011;5263;48.680;9.004;2023-04-24T11:21:56;1.03;;;0.30;;
10432;SDS011;5263;48.680;9.004;2023-04-24T11:29:45;0.30;;;0.30;;
10432;SDS011;5263;48.680;9.004;2023-04-24T11:32:19;0.50;;;0.30;;
10432;SDS011;5263;48.680;9.004;2023-04-24T11:34:51;0.60;;;0.30;;
10432;SDS011;5263;48.680;9.004;2023-04-24T11:37:18;0.30;;;0.30;;
10432;SDS011;5263;48.680;9.004;2023-04-24T11:39:43;0.70;;;0.27;;
10432;SDS011;5263;48.680;9.004;2023-04-24T11:42:09;2.43;;;0.40;;
10432;SDS011;5263;48.680;9.004;2023-04-24T11:44:35;3.07;;;0.50;;
10432;SDS011;5263;48.680;9.004;2023-04-24T11:47:04;0.30;;;0.30;;
10432;SDS011;5263;48.680;9.004;2023-04-24T11:49:31;1.27;;;0.30;;
10432;SDS011;5263;48.680;9.004;2023-04-24T11:51:57;1.07;;;0.37;;
10432;SDS011;5263;48.680;9.004;2023-04-24T11:54:25;0.40;;;0.40;;
10432;SDS011;5263;48.680;9.004;2023-04-24T11:56:50;2.67;;;0.30;;
10432;SDS011;5263;48.680;9.004;2023-04-24T11:59:16;0.40;;;0.30;;
10432;SDS011;5263;48.680;9.004;2023-04-24T12:01:43;1.03;;;0.30;;
10432;SDS011;5263;48.680;9.004;2023-04-24T12:04:12;0.27;;;0.27;;
10432;SDS011;5263;48.680;9.004;2023-04-24T12:06:38;1.17;;;0.57;;
10432;SDS011;5263;48.680;9.004;2023-04-24T12:09:04;0.53;;;0.53;;
10432;SDS011;5263;48.680;9.004;2023-04-24T12:11:29;1.13;;;0.53;;
10432;SDS011;5263;48.680;9.004;2023-04-24T12:13:55;0.70;;;0.47;;
10432;SDS011;5263;48.680;9.004;2023-04-24T12:16:21;0.57;;;0.33;;
10432;SDS011;5263;48.680;9.004;2023-04-24T12:18:46;1.03;;;0.40;;
10432;SDS011;5263;48.680;9.004;2023-04-24T12:21:19;2.37;;;0.33;;
10432;SDS011;5263;48.680;9.004;2023-04-24T12:23:46;0.30;;;0.30;;
10432;SDS011;5263;48.680;9.004;2023-04-24T12:26:12;2.30;;;0.40;;
10432;SDS011;5263;48.680;9.004;2023-04-24T12:28:42;1.03;;;0.30;;
10432;SDS011;5263;48.680;9.004;2023-04-24T12:31:11;0.50;;;0.30;;
10432;SDS011;5263;48.680;9.004;2023-04-24T12:33:36;0.93;;;0.30;;
10432;SDS011;5263;48.680;9.004;2023-04-24T12:36:03;1.17;;;0.30;;
10432;SDS011;5263;48.680;9.004;2023-04-24T12:38:30;0.20;;;0.20;;
10432;SDS011;5263;48.680;9.004;2023-04-24T12:43:31;1.80;;;0.30;;
10432;SDS011;5263;48.680;9.004;2023-04-24T12:45:57;0.57;;;0.30;;
10432;SDS011;5263;48.680;9.004;2023-04-24T12:48:24;0.20;;;0.20;;
10432;SDS011;5263;48.680;9.004;2023-04-24T12:50:51;1.07;;;0.40;;
10432;SDS011;5263;48.680;9.004;2023-04-24T12:53:16;1.00;;;0.40;;
10432;SDS011;5263;48.680;9.004;2023-04-24T12:55:42;0.30;;;0.30;;
10432;SDS011;5263;48.680;9.004;2023-04-24T12:58:09;0.70;;;0.60;;
10432;SDS011;5263;48.680;9.004;2023-04-24T13:00:35;0.63;;;0.60;;
10432;SDS011;5263;48.680;9.004;2023-04-24T13:03:01;0.90;;;0.60;;
10432;SDS011;5263;48.680;9.004;2023-04-24T13:05:27;1.13;;;0.40;;
10432;SDS011;5263;48.680;9.004;2023-04-24T13:07:52;1.17;;;0.50;;
10432;SDS011;5263;48.680;9.004;2023-04-24T13:10:18;0.43;;;0.43;;
10432;SDS011;5263;48.680;9.004;2023-04-24T13:12:44;0.40;;;0.40;;
10432;SDS011;5263;48.680;9.004;2023-04-24T13:15:11;0.47;;;0.47;;
10432;SDS011;5263;48.680;9.004;2023-04-24T13:17:36;0.40;;;0.40;;
10432;SDS011;5263;48.680;9.004;2023-04-24T13:20:02;4.67;;;0.60;;
10432;SDS011;5263;48.680;9.004;2023-04-24T13:22:30;0.67;;;0.40;;
10432;SDS011;5263;48.680;9.004;2023-04-24T13:24:55;1.43;;;0.60;;
10432;SDS011;5263;48.680;9.004;2023-04-24T13:27:22;0.80;;;0.50;;
10432;SDS011;5263;48.680;9.004;2023-04-24T13:29:47;3.40;;;0.50;;
10432;SDS011;5263;48.680;9.004;2023-04-24T13:32:13;0.90;;;0.60;;
10432;SDS011;5263;48.680;9.004;2023-04-24T13:34:39;3.97;;;0.50;;
10432;SDS011;5263;48.680;9.004;2023-04-24T13:37:04;0.70;;;0.60;;
10432;SDS011;5263;48.680;9.004;2023-04-24T13:39:30;3.20;;;0.97;;
10432;SDS011;5263;48.680;9.004;2023-04-24T13:41:56;2.27;;;0.53;;
10432;SDS011;5263;48.680;9.004;2023-04-24T13:44:23;0.50;;;0.50;;
10432;SDS011;5263;48.680;9.004;2023-04-24T13:46:49;1.50;;;0.90;;
10432;SDS011;5263;48.680;9.004;2023-04-24T13:49:17;0.50;;;0.50;;
10432;SDS011;5263;48.680;9.004;2023-04-24T13:51:44;5.60;;;0.87;;
10432;SDS011;5263;48.680;9.004;2023-04-24T13:54:10;1.83;;;0.80;;
10432;SDS011;5263;48.680;9.004;2023-04-24T13:56:36;0.73;;;0.70;;
10432;SDS011;5263;48.680;9.004;2023-04-24T13:59:02;0.60;;;0.50;;
10432;SDS011;5263;48.680;9.004;2023-04-24T14:01:27;1.77;;;0.70;;
10432;SDS011;5263;48.680;9.004;2023-04-24T14:03:53;0.90;;;0.60;;
10432;SDS011;5263;48.680;9.004;2023-04-24T14:06:20;0.70;;;0.70;;
10432;SDS011;5263;48.680;9.004;2023-04-24T14:08:46;0.50;;;0.50;;
10432;SDS011;5263;48.680;9.004;2023-04-24T14:11:12;0.80;;;0.50;;
10432;SDS011;5263;48.680;9.004;2023-04-24T14:13:38;0.70;;;0.70;;
10432;SDS011;5263;48.680;9.004;2023-04-24T14:16:05;3.23;;;1.13;;
10432;SDS011;5263;48.680;9.004;2023-04-24T14:18:31;1.17;;;1.07;;
10432;SDS011;5263;48.680;9.004;2023-04-24T14:20:57;1.07;;;1.00;;
10432;SDS011;5263;48.680;9.004;2023-04-24T14:23:22;2.40;;;1.00;;
10432;SDS011;5263;48.680;9.004;2023-04-24T14:25:48;1.40;;;1.00;;
10432;SDS011;5263;48.680;9.004;2023-04-24T14:28:17;0.90;;;0.90;;
10432;SDS011;5263;48.680;9.004;2023-04-24T14:30:46;1.23;;;0.93;;
10432;SDS011;5263;48.680;9.004;2023-04-24T14:33:12;1.97;;;0.70;;
10432;SDS011;5263;48.680;9.004;2023-04-24T14:35:38;0.87;;;0.80;;
10432;SDS011;5263;48.680;9.004;2023-04-24T14:38:05;2.63;;;1.07;;
10432;SDS011;5263;48.680;9.004;2023-04-24T14:40:31;2.17;;;0.67;;
10432;SDS011;5263;48.680;9.004;2023-04-24T14:42:57;1.63;;;0.70;;
10432;SDS011;5263;48.680;9.004;2023-04-24T14:45:23;0.67;;;0.50;;
10432;SDS011;5263;48.680;9.004;2023-04-24T14:47:50;0.97;;;0.70;;
10432;SDS011;5263;48.680;9.004;2023-04-24T14:50:15;1.17;;;0.50;;
10432;SDS011;5263;48.680;9.004;2023-04-24T14:52:41;0.60;;;0.50;;
10432;SDS011;5263;48.680;9.004;2023-04-24T14:55:07;1.70;;;0.50;;
10432;SDS011;5263;48.680;9.004;2023-04-24T14:57:33;3.13;;;0.60;;
10432;SDS011;5263;48.680;9.004;2023-04-24T14:59:59;0.37;;;0.37;;
10432;SDS011;5263;48.680;9.004;2023-04-24T15:02:25;0.30;;;0.30;;
10432;SDS011;5263;48.680;9.004;2023-04-24T15:04:50;1.47;;;0.50;;
10432;SDS011;5263;48.680;9.004;2023-04-24T15:07:16;0.73;;;0.50;;
10432;SDS011;5263;48.680;9.004;2023-04-24T15:09:42;0.40;;;0.40;;
10432;SDS011;5263;48.680;9.004;2023-04-24T15:12:08;1.20;;;0.70;;
10432;SDS011;5263;48.680;9.004;2023-04-24T15:14:34;3.23;;;0.60;;
10432;SDS011;5263;48.680;9.004;2023-04-24T15:17:00;1.10;;;0.47;;
10432;SDS011;5263;48.680;9.004;2023-04-24T15:19:26;2.43;;;0.50;;
10432;SDS011;5263;48.680;9.004;2023-04-24T15:21:51;0.60;;;0.40;;